Time;durP1;ratioP1;P1;durP2;ratioP2;P2;SDS_P1;SDS_P2;PMS_P1;PMS_P2;Temp;Humidity;BMP_temperature;BMP_pressure;BME280_temperature;BME280_humidity;BME280_pressure;Samples;Min_cycle;Max_cycle;Signal;HPM_P1;HPM_P2
2022/01/12 00:01:02;;;;;;;247.57;55.30;;;;;;;2.35;85.71;103133.91;5028056;28;20049;-68
2022/01/12 00:03:29;;;;;;;228.50;52.55;;;;;;;2.32;85.90;103143.31;5027667;28;20049;-68
2022/01/12 00:05:56;;;;;;;231.75;54.03;;;;;;;2.15;86.36;103137.78;5028428;28;20053;-68
2022/01/12 00:08:22;;;;;;;237.65;56.40;;;;;;;2.18;87.00;103131.81;5027566;28;20413;-68
2022/01/12 00:10:48;;;;;;;246.35;55.70;;;;;;;2.64;85.12;103133.59;5024259;28;20053;-68
2022/01/12 00:13:16;;;;;;;229.13;51.42;;;;;;;2.31;85.83;103133.81;5019310;28;20057;-68
2022/01/12 00:15:43;;;;;;;234.30;55.72;;;;;;;2.11;86.77;103127.31;5006432;28;20038;-67
2022/01/12 00:18:09;;;;;;;245.82;55.75;;;;;;;2.02;87.87;103125.44;5006374;28;20054;-67
2022/01/12 00:20:35;;;;;;;244.13;57.65;;;;;;;2.22;87.07;103133.59;5011933;28;20069;-67
2022/01/12 00:23:02;;;;;;;259.98;57.80;;;;;;;2.15;87.13;103123.97;5023032;28;20049;-68
2022/01/12 00:25:32;;;;;;;287.75;60.92;;;;;;;2.05;87.29;103127.22;5023488;28;20045;-68
2022/01/12 00:33:28;;;;;;;268.23;60.85;;;;;;;2.08;87.32;103116.91;5024354;28;20049;-68
2022/01/12 00:35:57;;;;;;;250.45;67.07;;;;;;;2.23;86.98;103119.81;5006475;28;20151;-68
2022/01/12 00:38:25;;;;;;;252.43;53.90;;;;;;;2.13;87.80;103107.53;5022520;28;20083;-67
2022/01/12 00:40:53;;;;;;;243.00;59.60;;;;;;;2.03;88.21;103108.19;5022740;28;20186;-68
2022/01/12 00:43:22;;;;;;;258.58;60.97;;;;;;;2.23;86.83;103112.06;5023710;28;20092;-68
2022/01/12 00:45:50;;;;;;;254.70;54.38;;;;;;;1.94;88.10;103112.34;5024257;28;20100;-68
2022/01/12 00:48:18;;;;;;;280.58;57.60;;;;;;;1.81;88.64;103112.91;5017638;28;20050;-67
2022/01/12 00:50:46;;;;;;;271.90;59.08;;;;;;;2.00;88.77;103106.41;5009769;28;20054;-68
2022/01/12 00:53:12;;;;;;;257.95;55.88;;;;;;;2.42;86.91;103109.88;5022100;28;20049;-67
2022/01/12 00:55:39;;;;;;;250.02;73.30;;;;;;;2.03;88.36;103109.09;5024272;28;20398;-67
2022/01/12 00:58:05;;;;;;;268.50;81.53;;;;;;;1.81;89.27;103120.66;5023771;28;20569;-68
2022/01/12 01:00:32;;;;;;;220.07;53.38;;;;;;;2.30;87.58;103121.69;5024188;28;20068;-68
2022/01/12 01:03:00;;;;;;;239.48;55.80;;;;;;;2.34;87.11;103116.63;5024791;28;20077;-68
2022/01/12 01:05:28;;;;;;;248.38;55.58;;;;;;;2.51;86.22;103116.97;5023955;28;20131;-68
2022/01/12 01:07:54;;;;;;;242.57;51.95;;;;;;;2.46;86.66;103121.16;5024725;28;20057;-68
2022/01/12 01:10:29;;;;;;;272.10;116.70;;;;;;;2.13;87.45;103113.59;5023586;28;20065;-68
2022/01/12 01:12:56;;;;;;;249.73;52.70;;;;;;;2.64;86.08;103113.75;5024397;28;20069;-68
2022/01/12 01:15:38;;;;;;;226.52;54.67;;;;;;;2.18;87.91;103109.38;5027247;28;20050;-68
2022/01/12 01:26:18;;;;;;;263.75;53.85;;;;;;;2.21;87.90;103111.16;5015424;28;20080;-68
2022/01/12 01:28:44;;;;;;;236.70;49.88;;;;;;;2.26;88.17;103115.59;5027257;28;20079;-68
2022/01/12 01:31:11;;;;;;;248.27;53.78;;;;;;;2.23;88.01;103119.81;5028441;28;20045;-68
2022/01/12 01:33:38;;;;;;;258.35;52.17;;;;;;;2.10;88.75;103118.72;5016312;28;20133;-68
2022/01/12 01:36:05;;;;;;;293.50;56.55;;;;;;;2.17;88.41;103123.19;5018574;28;20083;-68
2022/01/12 01:38:31;;;;;;;253.98;55.50;;;;;;;1.91;89.46;103116.56;5020671;28;20046;-67
2022/01/12 01:40:58;;;;;;;273.60;65.38;;;;;;;1.68;90.09;103112.59;5026478;28;20053;-67
2022/01/12 01:43:39;;;;;;;273.83;55.53;;;;;;;1.58;91.23;103110.66;5020881;28;20045;-67
2022/01/12 01:54:33;;;;;;;281.38;55.22;;;;;;;2.13;88.88;103104.97;4986830;28;20053;-68
2022/01/12 01:56:59;;;;;;;275.30;62.22;;;;;;;1.87;89.93;103107.88;5000609;28;20510;-68
2022/01/12 01:59:26;;;;;;;255.15;55.75;;;;;;;2.04;89.67;103110.81;5014497;28;20082;-68
2022/01/12 02:01:52;;;;;;;239.25;56.03;;;;;;;2.23;88.63;103101.72;5028719;28;20080;-68
2022/01/12 02:04:20;;;;;;;259.90;57.83;;;;;;;2.09;88.53;103109.19;5028592;28;20084;-68
2022/01/12 02:06:46;;;;;;;255.50;57.05;;;;;;;1.91;89.83;103107.09;5028545;28;20049;-68
2022/01/12 02:09:12;;;;;;;262.95;57.20;;;;;;;2.11;89.13;103119.56;5026645;28;20219;-68
2022/01/12 02:11:39;;;;;;;253.40;67.25;;;;;;;1.88;89.79;103113.94;5029087;28;20525;-68
2022/01/12 02:14:05;;;;;;;253.68;54.65;;;;;;;2.10;89.43;103117.84;5028839;28;20073;-68
2022/01/12 02:16:38;;;;;;;268.85;55.28;;;;;;;2.19;88.78;103112.84;5025072;28;20053;-68
2022/01/12 02:19:15;;;;;;;243.40;53.50;;;;;;;2.35;88.10;103105.41;5026671;28;20053;-68
2022/01/12 02:35:46;;;;;;;215.00;52.25;;;;;;;2.53;86.95;103125.63;5010947;28;20418;-68
2022/01/12 02:40:58;;;;;;;225.10;48.92;;;;;;;2.63;86.15;103127.53;5029996;28;20180;-68
2022/01/12 02:43:41;;;;;;;243.15;49.45;;;;;;;2.89;85.47;103134.06;5029594;28;20068;-68
2022/01/12 02:53:38;;;;;;;240.57;55.30;;;;;;;2.50;85.93;103122.09;5021765;28;20045;-68
2022/01/12 02:54:23;;;;;;;223.90;50.00;;;;;;;2.66;85.72;103124.16;5029554;28;20124;-68
2022/01/12 02:56:49;;;;;;;220.05;50.80;;;;;;;2.92;85.12;103117.69;5028745;28;20447;-67
2022/01/12 02:59:15;;;;;;;215.95;51.00;;;;;;;2.71;84.80;103120.78;5029814;28;20050;-67
2022/01/12 03:02:18;;;;;;;180.68;43.85;;;;;;;2.87;85.25;103127.13;5029794;28;20049;-68
2022/01/12 03:04:57;;;;;;;197.65;47.85;;;;;;;3.03;84.16;103129.09;5023333;28;20041;-68
2022/01/12 03:07:24;;;;;;;229.80;49.08;;;;;;;3.18;83.58;103126.78;5029251;28;20482;-68
2022/01/12 03:09:51;;;;;;;211.60;47.22;;;;;;;3.06;83.39;103129.19;5029278;28;20061;-68
2022/01/12 03:12:20;;;;;;;211.18;45.95;;;;;;;2.85;84.27;103129.66;5029706;28;20517;-68
2022/01/12 03:14:47;;;;;;;213.40;46.88;;;;;;;2.53;86.00;103135.97;5008186;28;20061;-68
2022/01/12 03:17:15;;;;;;;220.40;46.70;;;;;;;2.66;86.16;103143.13;5007519;28;20053;-68
2022/01/12 03:19:41;;;;;;;223.70;44.92;;;;;;;3.01;84.20;103135.13;5026416;28;20071;-68
2022/01/12 03:22:08;;;;;;;219.98;47.63;;;;;;;3.18;83.36;103138.91;5019117;28;20045;-68
2022/01/12 03:24:34;;;;;;;221.10;49.90;;;;;;;3.07;83.36;103132.66;5026933;28;20609;-68
2022/01/12 03:27:02;;;;;;;199.88;45.80;;;;;;;2.73;84.22;103128.59;5023172;28;20081;-68
2022/01/12 03:29:29;;;;;;;260.67;55.20;;;;;;;2.34;86.45;103134.72;5027337;28;20049;-68
2022/01/12 03:31:57;;;;;;;228.52;46.15;;;;;;;2.37;86.77;103131.31;5027066;28;20049;-68
2022/01/12 03:34:26;;;;;;;239.38;49.25;;;;;;;2.40;86.34;103121.91;5027224;28;20128;-68
2022/01/12 03:37:16;;;;;;;255.25;51.53;;;;;;;2.18;87.45;103109.38;5025937;28;20060;-67
2022/01/12 03:39:43;;;;;;;237.15;51.45;;;;;;;2.03;88.87;103121.13;5023255;28;20052;-67
2022/01/12 03:42:11;;;;;;;257.50;57.95;;;;;;;1.92;89.18;103115.75;5025344;28;20504;-68
2022/01/12 03:44:37;;;;;;;264.13;53.25;;;;;;;2.16;88.39;103116.25;5026049;28;20069;-67
2022/01/12 03:47:04;;;;;;;280.70;62.00;;;;;;;2.35;87.75;103117.50;5021469;28;20045;-68
2022/01/12 03:49:30;;;;;;;264.40;55.58;;;;;;;2.19;87.96;103115.44;5009021;28;20502;-68
2022/01/12 03:51:57;;;;;;;313.17;54.40;;;;;;;2.18;88.36;103116.28;5026143;28;20103;-68
2022/01/12 03:54:23;;;;;;;284.38;54.35;;;;;;;2.36;87.13;103116.66;5023072;28;20437;-68
2022/01/12 03:56:49;;;;;;;301.80;55.08;;;;;;;2.03;88.58;103113.38;5025706;28;20073;-67
2022/01/12 03:59:17;;;;;;;316.10;59.28;;;;;;;1.88;89.25;103117.38;5040113;28;20091;-67
2022/01/12 04:01:43;;;;;;;330.08;58.85;;;;;;;1.69;90.24;103116.94;5027517;28;20049;-67
2022/01/12 04:04:17;;;;;;;325.00;57.83;;;;;;;1.86;90.00;103111.28;5022922;28;20065;-67
2022/01/12 04:09:27;;;;;;;306.35;57.63;;;;;;;1.93;89.17;103117.47;5027490;28;20098;-67
2022/01/12 04:11:53;;;;;;;294.65;56.75;;;;;;;1.72;89.80;103124.75;5025514;28;20411;-67
2022/01/12 04:14:21;;;;;;;329.88;63.13;;;;;;;1.70;90.24;103110.94;5022454;28;20502;-68
2022/01/12 04:16:47;;;;;;;306.15;55.17;;;;;;;1.78;89.79;103107.66;5023182;28;20041;-67
2022/01/12 04:19:14;;;;;;;339.35;60.45;;;;;;;1.78;90.33;103112.84;5025894;28;20112;-67
2022/01/12 04:21:46;;;;;;;318.95;56.72;;;;;;;1.77;90.16;103105.94;5018825;28;20049;-68
2022/01/12 04:24:13;;;;;;;302.38;57.90;;;;;;;1.90;89.68;103096.72;5021636;28;20050;-67
2022/01/12 04:26:40;;;;;;;304.85;55.58;;;;;;;2.05;88.99;103101.34;5022204;28;20072;-67
2022/01/12 04:29:07;;;;;;;327.60;60.63;;;;;;;1.91;89.19;103108.81;5025602;28;20041;-68
2022/01/12 04:31:34;;;;;;;321.70;57.28;;;;;;;1.94;89.35;103107.16;5025564;28;20092;-67
2022/01/12 04:34:01;;;;;;;304.05;64.53;;;;;;;1.62;90.06;103118.53;5026389;28;20099;-68
2022/01/12 04:36:27;;;;;;;304.95;58.15;;;;;;;1.65;90.49;103120.28;5026718;28;20509;-68
2022/01/12 04:38:54;;;;;;;315.88;56.28;;;;;;;1.87;89.68;103119.94;5024537;28;20042;-67
2022/01/12 04:41:21;;;;;;;298.33;92.97;;;;;;;1.83;89.27;103118.13;5024534;28;20087;-67
2022/01/12 04:43:48;;;;;;;326.80;56.00;;;;;;;1.76;89.91;103114.53;5025111;28;20525;-68
2022/01/12 04:46:31;;;;;;;306.95;70.15;;;;;;;1.47;90.87;103107.81;5026729;28;20494;-67
2022/01/12 04:49:21;;;;;;;301.83;56.67;;;;;;;1.84;89.73;103105.22;5027654;28;20059;-67
2022/01/12 04:51:47;;;;;;;310.77;59.35;;;;;;;1.72;89.86;103104.94;5026286;28;20045;-67
2022/01/12 04:54:14;;;;;;;323.48;55.90;;;;;;;1.74;89.75;103107.56;5018829;28;20418;-67
2022/01/12 04:56:40;;;;;;;316.20;55.70;;;;;;;1.69;90.04;103110.06;5014508;28;20041;-67
2022/01/12 04:59:06;;;;;;;289.40;53.25;;;;;;;1.61;90.93;103121.06;5029274;28;20096;-68
2022/01/12 05:01:36;;;;;;;305.42;57.63;;;;;;;1.82;89.89;103118.94;5027792;28;20049;-67
2022/01/12 05:07:08;;;;;;;281.73;52.80;;;;;;;1.94;89.47;103145.97;5025358;28;20406;-67
2022/01/12 05:12:43;;;;;;;270.45;55.55;;;;;;;2.02;88.99;103135.78;5027484;28;20053;-67
2022/01/12 05:12:50;;;;;;;278.30;53.33;;;;;;;2.28;87.90;103144.09;5012444;28;20057;-67
2022/01/12 05:15:25;;;;;;;273.23;54.65;;;;;;;2.23;87.63;103136.22;5028254;28;20088;-67
2022/01/12 05:17:51;;;;;;;284.50;52.92;;;;;;;2.28;87.58;103146.69;5026096;28;20057;-67
2022/01/12 05:20:19;;;;;;;251.85;49.47;;;;;;;2.33;87.28;103153.69;5029257;28;20041;-67
2022/01/12 05:22:45;;;;;;;264.00;51.63;;;;;;;2.24;87.43;103134.53;5029461;28;20095;-67
2022/01/12 05:25:12;;;;;;;268.27;53.20;;;;;;;2.09;88.47;103126.44;5028167;28;20041;-67
2022/01/12 05:27:38;;;;;;;249.90;54.83;;;;;;;2.13;87.50;103129.13;5024613;28;20133;-69
2022/01/12 05:30:05;;;;;;;260.10;55.10;;;;;;;2.00;88.58;103123.63;5026809;28;20130;-67
2022/01/12 05:32:31;;;;;;;258.48;51.20;;;;;;;1.95;88.72;103113.22;5027903;28;20134;-68
2022/01/12 05:35:01;;;;;;;247.60;53.75;;;;;;;2.11;87.97;103119.56;5037073;28;20400;-68
2022/01/12 05:37:29;;;;;;;243.00;53.08;;;;;;;2.19;88.02;103121.47;5029410;28;20045;-67
2022/01/12 05:39:55;;;;;;;281.85;49.65;;;;;;;2.27;87.64;103122.50;5030320;28;20041;-69
2022/01/12 05:42:22;;;;;;;211.30;47.05;;;;;;;2.25;87.45;103128.50;5030825;28;20053;-67
2022/01/12 05:44:49;;;;;;;275.25;53.15;;;;;;;1.98;88.68;103140.84;5029002;28;20486;-67
2022/01/12 05:47:32;;;;;;;222.52;47.83;;;;;;;2.18;88.06;103134.41;5030142;28;20046;-68
2022/01/12 05:49:58;;;;;;;241.55;53.15;;;;;;;1.99;88.41;103129.69;5027442;28;20049;-67
2022/01/12 05:52:24;;;;;;;238.95;51.50;;;;;;;1.74;89.49;103129.13;5025854;28;20056;-67
2022/01/12 05:54:52;;;;;;;224.63;45.28;;;;;;;1.88;89.09;103122.56;5030748;28;20053;-67
2022/01/12 05:57:18;;;;;;;198.07;45.95;;;;;;;1.94;89.02;103107.16;5030863;28;20045;-68
2022/01/12 05:59:44;;;;;;;221.43;49.78;;;;;;;1.79;88.86;103124.94;5030398;28;20526;-68
2022/01/12 06:02:11;;;;;;;210.13;48.10;;;;;;;1.61;90.46;103124.53;5029973;28;20049;-67
2022/01/12 06:04:37;;;;;;;222.63;50.70;;;;;;;1.59;90.35;103115.00;5012125;28;20041;-67
2022/01/12 06:07:04;;;;;;;220.68;48.60;;;;;;;1.68;90.18;103118.66;5020470;28;20394;-67
2022/01/12 06:09:30;;;;;;;210.43;49.00;;;;;;;1.84;89.57;103128.50;5031024;28;20049;-67
2022/01/12 06:11:58;;;;;;;230.95;50.83;;;;;;;2.01;89.03;103117.63;5031268;28;20058;-67
2022/01/12 06:14:24;;;;;;;211.30;57.85;;;;;;;1.69;90.02;103123.00;5042058;28;20041;-67
2022/01/12 06:16:51;;;;;;;189.07;48.95;;;;;;;1.50;90.87;103126.00;5034675;28;20045;-67
2022/01/12 06:19:18;;;;;;;201.40;46.38;;;;;;;1.85;89.65;103124.19;5044210;28;20041;-68
2022/01/12 06:21:44;;;;;;;187.40;49.28;;;;;;;2.04;88.69;103126.31;5026658;28;20520;-67
2022/01/12 06:24:11;;;;;;;207.07;45.97;;;;;;;1.93;88.60;103139.03;5034103;28;20041;-67
2022/01/12 06:26:38;;;;;;;182.95;50.22;;;;;;;1.83;88.92;103134.50;5016981;28;20041;-69
2022/01/12 06:29:24;;;;;;;184.30;46.83;;;;;;;1.61;89.97;103128.81;5037203;28;20437;-67
2022/01/12 06:31:53;;;;;;;200.23;49.20;;;;;;;1.46;91.28;103134.50;5025649;28;20050;-67
2022/01/12 06:34:20;;;;;;;217.07;58.78;;;;;;;1.44;91.05;103138.78;5035467;28;20033;-68
2022/01/12 06:36:46;;;;;;;221.50;54.38;;;;;;;1.49;91.21;103142.31;5026049;28;20065;-67
2022/01/12 06:39:17;;;;;;;219.88;64.50;;;;;;;1.39;91.46;103149.00;5030065;28;20049;-67
2022/01/12 06:41:44;;;;;;;204.50;47.80;;;;;;;1.69;90.22;103153.16;5034354;28;20045;-67
2022/01/12 06:44:15;;;;;;;230.10;54.30;;;;;;;1.80;89.49;103159.44;5034669;28;20324;-67
2022/01/12 06:46:42;;;;;;;201.60;50.08;;;;;;;1.53;90.40;103156.19;5017156;28;20072;-67
2022/01/12 06:49:09;;;;;;;224.07;64.13;;;;;;;1.71;90.19;103157.50;5021022;28;20045;-67
2022/01/12 06:51:35;;;;;;;223.90;53.35;;;;;;;1.74;89.51;103157.56;5028762;28;20387;-67
2022/01/12 06:54:01;;;;;;;213.07;55.22;;;;;;;1.55;90.65;103160.59;5032805;28;20037;-67
2022/01/12 06:56:28;;;;;;;229.68;49.63;;;;;;;1.81;89.69;103151.69;5041250;28;20042;-67
2022/01/12 06:58:54;;;;;;;188.60;48.55;;;;;;;1.82;89.58;103152.56;5044966;28;20049;-67
2022/01/12 07:01:22;;;;;;;200.35;50.25;;;;;;;1.96;89.05;103154.63;5023560;28;20091;-67
2022/01/12 07:03:49;;;;;;;196.98;48.58;;;;;;;1.90;88.75;103148.44;5039073;28;20563;-67
2022/01/12 07:06:16;;;;;;;193.07;47.58;;;;;;;2.07;88.59;103156.59;5040676;28;20099;-67
2022/01/12 07:08:42;;;;;;;186.05;49.45;;;;;;;2.22;87.61;103154.31;5029230;28;20422;-67
2022/01/12 07:11:08;;;;;;;198.63;46.05;;;;;;;2.34;86.89;103151.97;5032953;28;20122;-67
2022/01/12 07:13:35;;;;;;;173.43;47.80;;;;;;;2.31;86.49;103162.28;5033714;28;20076;-67
2022/01/12 07:16:01;;;;;;;173.73;45.42;;;;;;;2.14;87.08;103161.06;5043661;28;20045;-67
2022/01/12 07:18:29;;;;;;;155.60;45.08;;;;;;;2.03;88.66;103154.78;5025144;28;20500;-67
2022/01/12 07:20:56;;;;;;;164.20;52.97;;;;;;;2.07;87.86;103154.00;5026674;28;20046;-67
2022/01/12 07:23:23;;;;;;;169.93;44.83;;;;;;;2.10;87.90;103151.47;5031010;28;20109;-67
2022/01/12 07:25:49;;;;;;;184.48;48.63;;;;;;;2.13;87.90;103146.38;5037494;28;20052;-67
2022/01/12 07:28:15;;;;;;;174.88;46.78;;;;;;;2.05;88.13;103153.09;5031699;28;20440;-68
2022/01/12 07:30:42;;;;;;;166.95;46.55;;;;;;;1.72;89.34;103158.38;5032952;28;20046;-67
2022/01/12 07:33:08;;;;;;;169.88;49.70;;;;;;;1.54;90.75;103164.00;5028601;28;20045;-67
2022/01/12 07:35:36;;;;;;;161.18;45.13;;;;;;;1.53;91.15;103170.00;5037060;28;20118;-67
2022/01/12 07:38:02;;;;;;;196.93;49.55;;;;;;;1.79;90.53;103176.66;5030927;28;20041;-67
2022/01/12 07:40:29;;;;;;;166.35;47.28;;;;;;;1.62;90.97;103172.81;5034409;28;20090;-67
2022/01/12 07:42:56;;;;;;;169.68;48.53;;;;;;;1.81;90.09;103163.78;5027504;28;20111;-67
2022/01/12 07:45:22;;;;;;;166.60;47.38;;;;;;;2.06;88.99;103155.72;5034038;28;20172;-67
2022/01/12 07:47:49;;;;;;;161.15;52.00;;;;;;;1.67;89.82;103159.97;5032358;28;20049;-67
2022/01/12 07:50:16;;;;;;;145.77;44.10;;;;;;;1.77;90.04;103167.13;5024005;28;20076;-67
2022/01/12 07:52:43;;;;;;;151.70;44.92;;;;;;;2.05;89.58;103163.44;5023247;28;20072;-67
2022/01/12 07:55:10;;;;;;;160.38;44.25;;;;;;;2.10;89.09;103175.66;5035214;28;20095;-68
2022/01/12 07:57:36;;;;;;;134.65;41.90;;;;;;;2.00;89.30;103178.84;5036623;28;20041;-67
2022/01/12 08:00:04;;;;;;;128.85;46.30;;;;;;;2.05;89.44;103189.31;5009009;28;20520;-67
2022/01/12 08:02:30;;;;;;;117.18;40.47;;;;;;;2.20;88.88;103200.00;5020814;28;20156;-67
2022/01/12 08:04:56;;;;;;;129.23;47.88;;;;;;;2.34;88.10;103208.94;5012778;28;20050;-68
2022/01/12 08:07:23;;;;;;;135.20;38.85;;;;;;;2.65;86.79;103203.56;5024169;28;20229;-67
2022/01/12 08:09:50;;;;;;;113.13;40.25;;;;;;;2.56;86.92;103195.59;5027762;28;20041;-68
2022/01/12 08:12:17;;;;;;;127.15;40.85;;;;;;;2.51;86.76;103193.78;5019318;28;20046;-67
2022/01/12 08:14:43;;;;;;;120.05;36.92;;;;;;;2.38;87.46;103205.56;5016282;28;20068;-68
2022/01/12 08:17:09;;;;;;;124.30;40.65;;;;;;;2.16;88.23;103217.19;5025094;28;20552;-68
2022/01/12 08:19:37;;;;;;;133.68;46.80;;;;;;;2.24;88.66;103214.75;5023717;28;20060;-68
2022/01/12 08:22:04;;;;;;;120.75;40.95;;;;;;;2.32;88.44;103216.69;5019951;28;20096;-68
2022/01/12 08:24:31;;;;;;;118.50;39.88;;;;;;;2.79;87.33;103209.88;5034170;28;20049;-68
2022/01/12 08:26:58;;;;;;;111.78;37.95;;;;;;;2.89;86.37;103221.28;5024252;28;20733;-68
2022/01/12 08:29:27;;;;;;;111.05;43.00;;;;;;;2.87;86.18;103220.41;5032334;28;20072;-67
2022/01/12 08:31:53;;;;;;;111.78;36.85;;;;;;;3.01;85.04;103221.53;5025137;28;20407;-68
2022/01/12 08:34:20;;;;;;;101.50;36.88;;;;;;;2.93;85.30;103218.78;5023806;28;20076;-68
2022/01/12 08:36:46;;;;;;;86.60;36.70;;;;;;;3.01;85.59;103218.06;5037447;28;20072;-68
2022/01/12 08:39:12;;;;;;;87.03;36.15;;;;;;;3.09;84.80;103224.28;5034441;28;20075;-68
2022/01/12 08:41:39;;;;;;;91.80;36.17;;;;;;;3.31;83.82;103223.81;5027804;28;20045;-68
2022/01/12 08:44:09;;;;;;;91.07;34.90;;;;;;;3.43;83.63;103229.22;5038678;28;20490;-68
2022/01/12 08:46:37;;;;;;;86.88;33.58;;;;;;;3.30;84.24;103225.53;5033699;28;20042;-68
2022/01/12 08:49:04;;;;;;;82.63;34.40;;;;;;;3.26;84.08;103222.84;5029385;28;20099;-68
2022/01/12 08:51:30;;;;;;;80.38;31.67;;;;;;;3.52;83.57;103231.94;5043841;28;20533;-68
2022/01/12 08:53:57;;;;;;;71.47;27.50;;;;;;;3.50;83.43;103231.06;5039296;28;20107;-68
2022/01/12 08:56:24;;;;;;;78.20;28.50;;;;;;;3.52;83.58;103231.06;5033655;28;20073;-68
2022/01/12 08:58:50;;;;;;;68.45;27.23;;;;;;;3.64;83.04;103229.56;5042247;28;20052;-68
2022/01/12 09:01:18;;;;;;;61.00;25.13;;;;;;;3.69;83.43;103225.34;5031417;28;20084;-68
2022/01/12 09:03:45;;;;;;;51.88;25.27;;;;;;;3.80;82.70;103223.78;5032279;28;20065;-68
2022/01/12 09:06:11;;;;;;;52.30;24.23;;;;;;;4.14;81.48;103225.13;5046014;28;20107;-68
2022/01/12 09:08:40;;;;;;;40.03;20.83;;;;;;;4.13;80.46;103222.53;5045531;28;20052;-68
2022/01/12 09:11:07;;;;;;;42.95;26.25;;;;;;;4.09;80.12;103221.63;5042229;28;20045;-68
2022/01/12 09:13:34;;;;;;;54.05;32.20;;;;;;;3.92;80.52;103229.16;5016404;28;20081;-68
2022/01/12 09:16:06;;;;;;;44.17;26.48;;;;;;;3.99;80.67;103224.06;5034263;28;20037;-68
2022/01/12 09:18:34;;;;;;;37.47;23.10;;;;;;;4.34;79.83;103233.22;5034913;28;20402;-68
2022/01/12 09:21:00;;;;;;;39.60;20.73;;;;;;;4.52;78.44;103219.59;5036108;28;20048;-68
2022/01/12 09:23:27;;;;;;;29.67;17.45;;;;;;;4.33;78.30;103221.06;5038480;28;20051;-68
2022/01/12 09:25:53;;;;;;;32.20;19.13;;;;;;;4.47;77.69;103219.56;5030115;28;20069;-68
2022/01/12 09:28:19;;;;;;;33.67;17.90;;;;;;;4.54;77.82;103226.56;5040749;28;20425;-67
2022/01/12 09:30:46;;;;;;;32.13;19.73;;;;;;;4.52;76.98;103223.06;5031704;28;20464;-68
2022/01/12 09:33:12;;;;;;;36.83;18.63;;;;;;;4.71;76.25;103219.84;5029193;28;20098;-68
2022/01/12 09:35:40;;;;;;;32.80;17.90;;;;;;;4.72;75.76;103216.41;5023506;28;20042;-68
2022/01/12 09:38:07;;;;;;;28.83;16.92;;;;;;;4.81;75.76;103221.69;5038730;28;20460;-68
2022/01/12 09:40:33;;;;;;;35.50;16.85;;;;;;;5.07;75.17;103218.50;5036581;28;20042;-68
2022/01/12 09:43:04;;;;;;;28.88;15.52;;;;;;;5.15;75.44;103212.53;5036163;28;20037;-68
2022/01/12 09:45:32;;;;;;;30.75;15.27;;;;;;;5.32;74.11;103200.53;5030930;28;20069;-68
2022/01/12 09:47:59;;;;;;;27.23;15.32;;;;;;;5.21;73.89;103212.56;5041777;28;20498;-69
2022/01/12 09:50:25;;;;;;;31.15;16.50;;;;;;;5.26;74.03;103216.09;5029149;28;20045;-68
2022/01/12 09:52:53;;;;;;;28.92;15.57;;;;;;;5.29;73.72;103215.25;5029959;28;20502;-68
2022/01/12 09:55:21;;;;;;;28.20;15.80;;;;;;;5.32;73.75;103212.72;5027455;28;20045;-68
2022/01/12 09:57:47;;;;;;;32.72;16.15;;;;;;;5.43;73.94;103229.28;5038091;28;20103;-68
2022/01/12 10:00:16;;;;;;;27.63;15.73;;;;;;;5.80;73.46;103231.31;5036879;28;20050;-69
2022/01/12 10:02:43;;;;;;;32.22;15.35;;;;;;;5.79;72.94;103233.91;5028025;28;20096;-69
2022/01/12 10:05:11;;;;;;;29.17;15.18;;;;;;;5.80;73.06;103223.50;5037964;28;20502;-68
2022/01/12 10:07:38;;;;;;;32.53;15.27;;;;;;;6.01;72.86;103214.13;5020642;28;20387;-69
2022/01/12 10:10:07;;;;;;;31.88;15.68;;;;;;;6.24;72.85;103222.97;5029509;28;20087;-68
2022/01/12 10:12:34;;;;;;;30.17;18.65;;;;;;;5.94;73.14;103225.38;5031061;28;20044;-68
2022/01/12 10:15:02;;;;;;;31.63;17.73;;;;;;;6.19;73.27;103224.66;5031135;28;20107;-68
2022/01/12 10:17:34;;;;;;;29.23;16.75;;;;;;;6.23;73.20;103216.88;5018212;28;20049;-68
2022/01/12 10:20:08;;;;;;;38.83;18.73;;;;;;;6.06;73.62;103212.44;5018919;28;20052;-69
2022/01/12 10:22:35;;;;;;;31.90;19.55;;;;;;;5.94;74.23;103207.16;5024973;28;20115;-68
2022/01/12 10:25:13;;;;;;;38.08;18.33;;;;;;;6.14;74.66;103208.13;5025450;28;20068;-69
2022/01/12 10:27:41;;;;;;;38.33;19.13;;;;;;;6.10;74.26;103199.44;5015655;28;20440;-68
2022/01/12 10:30:18;;;;;;;41.38;31.25;;;;;;;5.81;74.51;103204.41;5025762;28;20072;-68
2022/01/12 10:32:44;;;;;;;39.78;19.60;;;;;;;5.86;75.16;103204.50;5029372;28;20045;-69
2022/01/12 10:35:11;;;;;;;34.88;23.92;;;;;;;5.78;75.36;103203.53;5033972;28;20058;-68
2022/01/12 10:37:37;;;;;;;34.15;19.42;;;;;;;6.03;75.11;103196.78;5020495;28;20049;-68
2022/01/12 10:40:07;;;;;;;39.83;19.85;;;;;;;5.98;74.58;103207.19;5030409;28;20045;-68
2022/01/12 10:42:34;;;;;;;40.55;17.85;;;;;;;5.93;74.50;103213.22;5028599;28;20049;-69
2022/01/12 10:45:04;;;;;;;37.67;19.55;;;;;;;5.94;74.92;103208.03;5030427;28;20099;-69
2022/01/12 10:47:32;;;;;;;35.08;19.50;;;;;;;6.11;74.46;103215.94;5029179;28;20056;-68
2022/01/12 10:50:00;;;;;;;42.53;20.38;;;;;;;6.53;73.56;103218.78;5028162;28;20409;-68
2022/01/12 10:52:28;;;;;;;38.85;19.20;;;;;;;6.69;72.62;103212.75;5024922;28;20060;-68
2022/01/12 10:54:56;;;;;;;29.58;17.65;;;;;;;6.44;73.38;103215.25;5030136;28;20053;-68
2022/01/12 10:57:26;;;;;;;34.72;18.52;;;;;;;6.51;72.47;103210.06;5013052;28;20092;-69
2022/01/12 11:00:08;;;;;;;32.92;19.58;;;;;;;6.16;74.15;103219.44;5013761;28;20053;-69
2022/01/12 11:02:36;;;;;;;41.05;20.48;;;;;;;6.51;73.71;103212.66;5022406;28;20481;-69
2022/01/12 11:05:05;;;;;;;35.42;19.52;;;;;;;6.57;73.15;103202.28;5026275;28;20045;-69
2022/01/12 11:07:31;;;;;;;35.40;19.10;;;;;;;6.22;74.21;103209.94;5010380;28;20422;-68
2022/01/12 11:10:01;;;;;;;33.88;18.98;;;;;;;6.54;73.68;103202.25;5021973;28;20115;-68
2022/01/12 11:12:28;;;;;;;37.63;20.45;;;;;;;6.57;73.06;103217.94;5045296;28;20049;-68
2022/01/12 11:14:55;;;;;;;35.00;20.20;;;;;;;6.52;73.16;103218.75;5030713;28;21590;-68
2022/01/12 11:17:23;;;;;;;37.47;20.17;;;;;;;5.96;75.00;103218.44;5030518;28;20176;-68
2022/01/12 11:19:55;;;;;;;41.10;21.17;;;;;;;6.16;75.61;103211.63;5030277;28;20041;-68
2022/01/12 11:22:30;;;;;;;38.65;20.00;;;;;;;6.51;73.81;103204.84;5029829;28;20078;-68
2022/01/12 11:24:57;;;;;;;43.17;20.70;;;;;;;6.70;73.78;103201.47;5030169;28;20045;-68
2022/01/12 11:27:24;;;;;;;48.58;21.13;;;;;;;6.50;73.98;103204.88;5029541;28;20421;-68
2022/01/12 11:29:50;;;;;;;41.85;21.63;;;;;;;6.64;73.59;103211.00;5029071;28;20490;-68
2022/01/12 11:32:24;;;;;;;38.83;20.95;;;;;;;6.69;73.52;103212.75;5023446;28;20114;-68
2022/01/12 11:35:00;;;;;;;36.40;21.30;;;;;;;6.59;73.71;103208.38;5030164;28;20041;-68
2022/01/12 11:37:27;;;;;;;47.40;23.05;;;;;;;6.52;74.75;103205.72;5029127;28;20065;-68
2022/01/12 11:39:53;;;;;;;41.30;21.10;;;;;;;6.43;75.02;103213.53;5030371;28;20041;-68
2022/01/12 11:42:20;;;;;;;39.33;21.02;;;;;;;6.54;74.40;103210.06;5029309;28;20548;-68
2022/01/12 11:44:46;;;;;;;43.75;23.70;;;;;;;6.55;75.17;103204.00;5025483;28;20083;-69
2022/01/12 11:47:15;;;;;;;43.05;20.92;;;;;;;6.68;74.48;103199.72;5028829;28;20050;-68
2022/01/12 11:49:46;;;;;;;43.17;21.33;;;;;;;6.71;74.98;103199.72;5026483;28;20110;-69
2022/01/12 11:52:17;;;;;;;41.95;19.42;;;;;;;6.93;73.38;103201.53;5027951;28;20045;-68
2022/01/12 11:54:47;;;;;;;44.45;23.27;;;;;;;6.90;73.83;103201.53;5029458;28;20034;-68
2022/01/12 11:57:18;;;;;;;50.03;22.73;;;;;;;6.75;74.51;103212.78;5028860;28;20083;-68
2022/01/12 11:59:54;;;;;;;41.38;22.27;;;;;;;6.96;73.63;103192.81;5029046;28;20052;-69
2022/01/12 12:02:31;;;;;;;43.97;22.23;;;;;;;6.56;74.26;103199.66;5030204;28;20099;-69
2022/01/12 12:05:00;;;;;;;37.45;22.05;;;;;;;6.57;75.39;103196.19;5030642;28;20061;-69
2022/01/12 12:07:27;;;;;;;41.47;20.88;;;;;;;6.74;74.55;103194.50;5024944;28;20485;-69